sensor_id;sensor_type;location;lat;lon;timestamp;P1;durP1;ratioP1;P2;durP2;ratioP2
47225;SDS011;32965;64.142;-21.912;2022-08-04T00:03:10;1.10;;;0.17;;
47225;SDS011;32965;64.142;-21.912;2022-08-04T00:10:08;1.08;;;0.30;;
47225;SDS011;32965;64.142;-21.912;2022-08-04T00:14:09;0.28;;;0.10;;
47225;SDS011;32965;64.142;-21.912;2022-08-04T00:16:44;0.82;;;0.30;;
47225;SDS011;32965;64.142;-21.912;2022-08-04T00:19:38;0.77;;;0.22;;
47225;SDS011;32965;64.142;-21.912;2022-08-04T00:22:42;4.43;;;0.13;;
47225;SDS011;32965;64.142;-21.912;2022-08-04T00:25:57;0.15;;;0.08;;
47225;SDS011;32965;64.142;-21.912;2022-08-04T00:31:40;0.38;;;0.10;;
47225;SDS011;32965;64.142;-21.912;2022-08-04T00:34:52;0.22;;;0.20;;
47225;SDS011;32965;64.142;-21.912;2022-08-04T01:12:28;0.00;;;0.00;;
47225;SDS011;32965;64.142;-21.912;2022-08-04T01:15:39;0.20;;;0.10;;
47225;SDS011;32965;64.142;-21.912;2022-08-04T01:22:04;1.25;;;0.20;;
47225;SDS011;32965;64.142;-21.912;2022-08-04T01:24:58;1.42;;;0.30;;
47225;SDS011;32965;64.142;-21.912;2022-08-04T01:31:16;0.73;;;0.20;;
47225;SDS011;32965;64.142;-21.912;2022-08-04T01:36:56;3.75;;;0.40;;
47225;SDS011;32965;64.142;-21.912;2022-08-04T01:39:59;1.48;;;0.10;;
47225;SDS011;32965;64.142;-21.912;2022-08-04T01:42:35;0.00;;;0.00;;
47225;SDS011;32965;64.142;-21.912;2022-08-04T01:45:26;0.03;;;0.00;;
47225;SDS011;32965;64.142;-21.912;2022-08-04T01:54:21;2.10;;;0.65;;
47225;SDS011;32965;64.142;-21.912;2022-08-04T01:57:31;0.70;;;0.15;;
47225;SDS011;32965;64.142;-21.912;2022-08-04T02:00:24;1.67;;;0.10;;
47225;SDS011;32965;64.142;-21.912;2022-08-04T02:03:03;0.50;;;0.20;;
47225;SDS011;32965;64.142;-21.912;2022-08-04T02:06:07;0.20;;;0.10;;
47225;SDS011;32965;64.142;-21.912;2022-08-04T02:08:50;0.13;;;0.00;;
47225;SDS011;32965;64.142;-21.912;2022-08-04T02:11:36;0.73;;;0.10;;
47225;SDS011;32965;64.142;-21.912;2022-08-04T02:18:03;1.70;;;0.20;;
47225;SDS011;32965;64.142;-21.912;2022-08-04T02:20:54;0.20;;;0.05;;
47225;SDS011;32965;64.142;-21.912;2022-08-04T02:23:40;1.17;;;0.10;;
47225;SDS011;32965;64.142;-21.912;2022-08-04T02:32:24;0.20;;;0.17;;
47225;SDS011;32965;64.142;-21.912;2022-08-04T02:35:27;0.25;;;0.10;;
47225;SDS011;32965;64.142;-21.912;2022-08-04T02:38:23;0.00;;;0.00;;
47225;SDS011;32965;64.142;-21.912;2022-08-04T02:41:09;1.30;;;0.25;;
47225;SDS011;32965;64.142;-21.912;2022-08-04T02:43:38;0.73;;;0.03;;
47225;SDS011;32965;64.142;-21.912;2022-08-04T02:46:28;3.10;;;0.20;;
47225;SDS011;32965;64.142;-21.912;2022-08-04T02:48:57;0.40;;;0.00;;
47225;SDS011;32965;64.142;-21.912;2022-08-04T02:52:02;0.85;;;0.10;;
47225;SDS011;32965;64.142;-21.912;2022-08-04T02:54:32;0.13;;;0.00;;
47225;SDS011;32965;64.142;-21.912;2022-08-04T02:57:21;0.10;;;0.00;;
47225;SDS011;32965;64.142;-21.912;2022-08-04T03:00:10;0.13;;;0.00;;
47225;SDS011;32965;64.142;-21.912;2022-08-04T03:26:30;0.68;;;0.03;;
47225;SDS011;32965;64.142;-21.912;2022-08-04T03:32:02;2.42;;;0.47;;
47225;SDS011;32965;64.142;-21.912;2022-08-04T03:40:14;0.10;;;0.00;;
47225;SDS011;32965;64.142;-21.912;2022-08-04T03:59:58;0.00;;;0.00;;
47225;SDS011;32965;64.142;-21.912;2022-08-04T04:07:49;0.20;;;0.00;;
47225;SDS011;32965;64.142;-21.912;2022-08-04T04:32:03;1.98;;;0.20;;
47225;SDS011;32965;64.142;-21.912;2022-08-04T04:34:48;1.13;;;0.10;;
47225;SDS011;32965;64.142;-21.912;2022-08-04T05:02:22;0.35;;;0.10;;
47225;SDS011;32965;64.142;-21.912;2022-08-04T05:23:43;1.88;;;0.20;;
47225;SDS011;32965;64.142;-21.912;2022-08-04T05:28:53;0.35;;;0.08;;
47225;SDS011;32965;64.142;-21.912;2022-08-04T05:31:33;3.20;;;0.60;;
47225;SDS011;32965;64.142;-21.912;2022-08-04T05:34:22;1.30;;;0.05;;
47225;SDS011;32965;64.142;-21.912;2022-08-04T05:36:54;1.45;;;0.03;;
47225;SDS011;32965;64.142;-21.912;2022-08-04T05:39:35;1.45;;;0.10;;
47225;SDS011;32965;64.142;-21.912;2022-08-04T05:42:13;0.10;;;0.08;;
47225;SDS011;32965;64.142;-21.912;2022-08-04T05:44:47;0.85;;;0.13;;
47225;SDS011;32965;64.142;-21.912;2022-08-04T05:47:14;2.05;;;0.43;;
47225;SDS011;32965;64.142;-21.912;2022-08-04T05:52:17;0.50;;;0.00;;
47225;SDS011;32965;64.142;-21.912;2022-08-04T05:54:57;0.08;;;0.08;;
47225;SDS011;32965;64.142;-21.912;2022-08-04T05:57:31;2.45;;;0.20;;
47225;SDS011;32965;64.142;-21.912;2022-08-04T05:59:59;1.83;;;0.10;;
47225;SDS011;32965;64.142;-21.912;2022-08-04T06:02:28;0.95;;;0.10;;
47225;SDS011;32965;64.142;-21.912;2022-08-04T06:04:56;1.35;;;0.10;;
47225;SDS011;32965;64.142;-21.912;2022-08-04T06:07:25;0.22;;;0.10;;
47225;SDS011;32965;64.142;-21.912;2022-08-04T06:09:51;1.47;;;0.10;;
47225;SDS011;32965;64.142;-21.912;2022-08-04T06:12:22;0.68;;;0.08;;
47225;SDS011;32965;64.142;-21.912;2022-08-04T06:20:08;0.45;;;0.00;;
47225;SDS011;32965;64.142;-21.912;2022-08-04T06:22:38;1.60;;;0.10;;
47225;SDS011;32965;64.142;-21.912;2022-08-04T06:25:17;0.30;;;0.00;;
47225;SDS011;32965;64.142;-21.912;2022-08-04T06:27:46;1.25;;;0.10;;
47225;SDS011;32965;64.142;-21.912;2022-08-04T06:30:16;0.22;;;0.10;;
47225;SDS011;32965;64.142;-21.912;2022-08-04T06:32:45;3.92;;;0.35;;
47225;SDS011;32965;64.142;-21.912;2022-08-04T06:35:33;0.65;;;0.20;;
47225;SDS011;32965;64.142;-21.912;2022-08-04T06:37:59;4.07;;;0.22;;
47225;SDS011;32965;64.142;-21.912;2022-08-04T06:40:33;2.00;;;0.20;;
47225;SDS011;32965;64.142;-21.912;2022-08-04T06:43:08;0.52;;;0.10;;
47225;SDS011;32965;64.142;-21.912;2022-08-04T06:45:38;0.60;;;0.20;;
47225;SDS011;32965;64.142;-21.912;2022-08-04T06:48:07;1.52;;;0.10;;
47225;SDS011;32965;64.142;-21.912;2022-08-04T06:50:40;1.10;;;0.30;;
47225;SDS011;32965;64.142;-21.912;2022-08-04T06:53:17;0.38;;;0.03;;
47225;SDS011;32965;64.142;-21.912;2022-08-04T06:55:45;3.63;;;0.98;;
47225;SDS011;32965;64.142;-21.912;2022-08-04T06:58:12;0.45;;;0.17;;
47225;SDS011;32965;64.142;-21.912;2022-08-04T07:00:40;1.48;;;0.10;;
47225;SDS011;32965;64.142;-21.912;2022-08-04T07:03:10;1.33;;;0.20;;
47225;SDS011;32965;64.142;-21.912;2022-08-04T07:05:42;0.20;;;0.05;;
47225;SDS011;32965;64.142;-21.912;2022-08-04T07:08:12;0.50;;;0.10;;
47225;SDS011;32965;64.142;-21.912;2022-08-04T07:11:01;0.30;;;0.10;;
47225;SDS011;32965;64.142;-21.912;2022-08-04T07:13:32;0.30;;;0.08;;
47225;SDS011;32965;64.142;-21.912;2022-08-04T08:34:10;3.90;;;0.68;;
47225;SDS011;32965;64.142;-21.912;2022-08-04T12:40:15;2.75;;;1.02;;
47225;SDS011;32965;64.142;-21.912;2022-08-04T12:43:38;1.83;;;0.55;;
47225;SDS011;32965;64.142;-21.912;2022-08-04T12:49:14;5.20;;;0.70;;
47225;SDS011;32965;64.142;-21.912;2022-08-04T12:52:44;1.83;;;0.50;;
47225;SDS011;32965;64.142;-21.912;2022-08-04T12:55:49;2.28;;;0.50;;
47225;SDS011;32965;64.142;-21.912;2022-08-04T14:47:56;1.23;;;0.50;;
47225;SDS011;32965;64.142;-21.912;2022-08-04T16:28:56;7.43;;;0.60;;
47225;SDS011;32965;64.142;-21.912;2022-08-04T16:32:34;1.33;;;0.43;;
47225;SDS011;32965;64.142;-21.912;2022-08-04T16:36:05;1.67;;;0.30;;
47225;SDS011;32965;64.142;-21.912;2022-08-04T16:43:26;4.43;;;1.27;;
47225;SDS011;32965;64.142;-21.912;2022-08-04T16:53:42;1.40;;;0.68;;
47225;SDS011;32965;64.142;-21.912;2022-08-04T17:02:15;3.40;;;0.88;;
47225;SDS011;32965;64.142;-21.912;2022-08-04T17:18:40;3.55;;;0.68;;
47225;SDS011;32965;64.142;-21.912;2022-08-04T17:32:36;4.95;;;1.42;;
47225;SDS011;32965;64.142;-21.912;2022-08-04T17:54:59;5.22;;;1.05;;
47225;SDS011;32965;64.142;-21.912;2022-08-04T18:09:29;6.25;;;1.08;;
47225;SDS011;32965;64.142;-21.912;2022-08-04T21:12:28;4.05;;;0.90;;
47225;SDS011;32965;64.142;-21.912;2022-08-04T21:14:58;6.30;;;2.35;;
47225;SDS011;32965;64.142;-21.912;2022-08-04T21:17:49;6.95;;;1.30;;
47225;SDS011;32965;64.142;-21.912;2022-08-04T21:20:19;2.72;;;1.20;;
47225;SDS011;32965;64.142;-21.912;2022-08-04T21:26:29;11.40;;;4.15;;
47225;SDS011;32965;64.142;-21.912;2022-08-04T21:28:58;24.20;;;7.95;;
47225;SDS011;32965;64.142;-21.912;2022-08-04T21:31:25;6.40;;;2.20;;
47225;SDS011;32965;64.142;-21.912;2022-08-04T21:33:55;8.68;;;2.80;;
47225;SDS011;32965;64.142;-21.912;2022-08-04T21:36:22;11.85;;;3.00;;
47225;SDS011;32965;64.142;-21.912;2022-08-04T21:38:48;6.53;;;1.25;;
47225;SDS011;32965;64.142;-21.912;2022-08-04T21:41:16;8.90;;;1.85;;
47225;SDS011;32965;64.142;-21.912;2022-08-04T21:43:43;8.15;;;2.03;;
47225;SDS011;32965;64.142;-21.912;2022-08-04T21:46:11;8.00;;;3.90;;
47225;SDS011;32965;64.142;-21.912;2022-08-04T21:48:49;7.32;;;1.40;;
47225;SDS011;32965;64.142;-21.912;2022-08-04T21:51:35;5.68;;;2.08;;
47225;SDS011;32965;64.142;-21.912;2022-08-04T21:54:06;7.30;;;1.65;;
47225;SDS011;32965;64.142;-21.912;2022-08-04T21:56:40;8.43;;;2.00;;
47225;SDS011;32965;64.142;-21.912;2022-08-04T22:01:42;5.70;;;1.58;;
47225;SDS011;32965;64.142;-21.912;2022-08-04T22:04:09;8.43;;;2.17;;
47225;SDS011;32965;64.142;-21.912;2022-08-04T22:06:35;8.70;;;2.30;;
47225;SDS011;32965;64.142;-21.912;2022-08-04T22:09:07;9.18;;;2.17;;
47225;SDS011;32965;64.142;-21.912;2022-08-04T22:11:35;4.38;;;1.50;;
47225;SDS011;32965;64.142;-21.912;2022-08-04T22:14:23;2.45;;;0.80;;
47225;SDS011;32965;64.142;-21.912;2022-08-04T22:17:16;5.53;;;0.85;;
47225;SDS011;32965;64.142;-21.912;2022-08-04T22:20:03;7.10;;;1.20;;
47225;SDS011;32965;64.142;-21.912;2022-08-04T22:22:32;4.03;;;1.17;;
47225;SDS011;32965;64.142;-21.912;2022-08-04T22:25:01;5.97;;;1.27;;
47225;SDS011;32965;64.142;-21.912;2022-08-04T22:27:29;9.05;;;1.17;;
47225;SDS011;32965;64.142;-21.912;2022-08-04T22:30:16;6.07;;;1.02;;
47225;SDS011;32965;64.142;-21.912;2022-08-04T22:32:46;5.45;;;1.55;;
47225;SDS011;32965;64.142;-21.912;2022-08-04T22:35:19;4.55;;;1.00;;
47225;SDS011;32965;64.142;-21.912;2022-08-04T22:38:03;4.25;;;1.17;;
47225;SDS011;32965;64.142;-21.912;2022-08-04T22:40:56;5.55;;;0.80;;
47225;SDS011;32965;64.142;-21.912;2022-08-04T22:43:40;2.95;;;0.77;;
47225;SDS011;32965;64.142;-21.912;2022-08-04T22:46:21;1.48;;;0.73;;
47225;SDS011;32965;64.142;-21.912;2022-08-04T22:48:50;6.20;;;1.52;;
47225;SDS011;32965;64.142;-21.912;2022-08-04T22:51:22;3.37;;;1.27;;
47225;SDS011;32965;64.142;-21.912;2022-08-04T22:57:42;3.15;;;1.20;;
47225;SDS011;32965;64.142;-21.912;2022-08-04T23:00:31;6.82;;;1.30;;
47225;SDS011;32965;64.142;-21.912;2022-08-04T23:03:00;4.28;;;0.85;;
47225;SDS011;32965;64.142;-21.912;2022-08-04T23:05:30;4.35;;;0.95;;
47225;SDS011;32965;64.142;-21.912;2022-08-04T23:08:00;4.95;;;0.98;;
47225;SDS011;32965;64.142;-21.912;2022-08-04T23:10:27;3.00;;;0.82;;
47225;SDS011;32965;64.142;-21.912;2022-08-04T23:16:16;1.77;;;0.60;;
47225;SDS011;32965;64.142;-21.912;2022-08-04T23:19:11;5.93;;;0.70;;
47225;SDS011;32965;64.142;-21.912;2022-08-04T23:22:46;3.33;;;1.33;;
47225;SDS011;32965;64.142;-21.912;2022-08-04T23:25:34;4.60;;;1.10;;
47225;SDS011;32965;64.142;-21.912;2022-08-04T23:28:14;3.95;;;0.73;;
47225;SDS011;32965;64.142;-21.912;2022-08-04T23:30:55;2.28;;;0.70;;
47225;SDS011;32965;64.142;-21.912;2022-08-04T23:33:25;2.63;;;0.65;;
47225;SDS011;32965;64.142;-21.912;2022-08-04T23:36:00;2.70;;;0.80;;
47225;SDS011;32965;64.142;-21.912;2022-08-04T23:38:27;3.05;;;1.10;;
47225;SDS011;32965;64.142;-21.912;2022-08-04T23:41:05;3.03;;;0.95;;
47225;SDS011;32965;64.142;-21.912;2022-08-04T23:43:44;3.05;;;0.57;;
47225;SDS011;32965;64.142;-21.912;2022-08-04T23:46:13;2.47;;;0.80;;
47225;SDS011;32965;64.142;-21.912;2022-08-04T23:48:40;4.90;;;0.77;;
47225;SDS011;32965;64.142;-21.912;2022-08-04T23:51:18;3.42;;;1.23;;
47225;SDS011;32965;64.142;-21.912;2022-08-04T23:54:00;1.90;;;1.15;;
47225;SDS011;32965;64.142;-21.912;2022-08-04T23:56:29;1.88;;;0.70;;
47225;SDS011;32965;64.142;-21.912;2022-08-04T23:59:25;1.70;;;0.60;;
